sensor_id;sensor_type;location;lat;lon;timestamp;temperature;humidity
76120;DHT22;64852;48.092;-1.640;2022-11-13T00:00:34;15.40;99.90
76120;DHT22;64852;48.092;-1.640;2022-11-13T00:02:59;15.40;99.90
76120;DHT22;64852;48.092;-1.640;2022-11-13T00:05:25;15.40;99.90
76120;DHT22;64852;48.092;-1.640;2022-11-13T00:07:51;15.40;99.90
76120;DHT22;64852;48.092;-1.640;2022-11-13T00:10:16;15.40;99.90
76120;DHT22;64852;48.092;-1.640;2022-11-13T00:12:42;15.40;99.90
76120;DHT22;64852;48.092;-1.640;2022-11-13T00:15:08;15.40;99.90
76120;DHT22;64852;48.092;-1.640;2022-11-13T00:17:34;15.40;99.90
76120;DHT22;64852;48.092;-1.640;2022-11-13T00:19:59;15.40;99.90
76120;DHT22;64852;48.092;-1.640;2022-11-13T00:22:25;15.50;99.90
76120;DHT22;64852;48.092;-1.640;2022-11-13T00:24:50;15.40;99.90
76120;DHT22;64852;48.092;-1.640;2022-11-13T00:27:16;15.40;99.90
76120;DHT22;64852;48.092;-1.640;2022-11-13T00:29:42;15.40;99.90
76120;DHT22;64852;48.092;-1.640;2022-11-13T00:32:08;15.40;99.90
76120;DHT22;64852;48.092;-1.640;2022-11-13T00:34:33;15.30;99.90
76120;DHT22;64852;48.092;-1.640;2022-11-13T00:36:59;15.30;99.90
76120;DHT22;64852;48.092;-1.640;2022-11-13T00:39:25;15.40;99.90
76120;DHT22;64852;48.092;-1.640;2022-11-13T00:41:50;15.30;99.90
76120;DHT22;64852;48.092;-1.640;2022-11-13T00:44:16;15.30;99.90
76120;DHT22;64852;48.092;-1.640;2022-11-13T00:46:42;15.40;99.90
76120;DHT22;64852;48.092;-1.640;2022-11-13T00:49:07;15.30;99.90
76120;DHT22;64852;48.092;-1.640;2022-11-13T00:51:33;15.30;99.90
76120;DHT22;64852;48.092;-1.640;2022-11-13T00:53:58;15.30;99.90
76120;DHT22;64852;48.092;-1.640;2022-11-13T00:56:24;15.30;99.90
76120;DHT22;64852;48.092;-1.640;2022-11-13T00:58:50;15.30;99.90
76120;DHT22;64852;48.092;-1.640;2022-11-13T01:01:17;15.30;99.90
76120;DHT22;64852;48.092;-1.640;2022-11-13T01:03:43;15.30;99.90
76120;DHT22;64852;48.092;-1.640;2022-11-13T01:06:27;15.20;99.90
76120;DHT22;64852;48.092;-1.640;2022-11-13T01:08:54;15.20;99.90
76120;DHT22;64852;48.092;-1.640;2022-11-13T01:11:22;15.30;99.90
76120;DHT22;64852;48.092;-1.640;2022-11-13T01:13:49;15.20;99.90
76120;DHT22;64852;48.092;-1.640;2022-11-13T01:16:16;15.20;99.90
76120;DHT22;64852;48.092;-1.640;2022-11-13T01:18:42;15.10;99.90
76120;DHT22;64852;48.092;-1.640;2022-11-13T01:21:11;15.10;99.90
76120;DHT22;64852;48.092;-1.640;2022-11-13T01:23:37;14.70;99.90
76120;DHT22;64852;48.092;-1.640;2022-11-13T01:28:38;15.20;99.90
76120;DHT22;64852;48.092;-1.640;2022-11-13T01:31:06;15.10;99.90
76120;DHT22;64852;48.092;-1.640;2022-11-13T01:33:32;15.10;99.90
76120;DHT22;64852;48.092;-1.640;2022-11-13T01:36:03;15.10;99.90
76120;DHT22;64852;48.092;-1.640;2022-11-13T01:38:29;15.10;99.90
76120;DHT22;64852;48.092;-1.640;2022-11-13T01:40:55;15.10;99.90
76120;DHT22;64852;48.092;-1.640;2022-11-13T01:43:30;15.00;99.90
76120;DHT22;64852;48.092;-1.640;2022-11-13T01:48:36;15.00;99.90
76120;DHT22;64852;48.092;-1.640;2022-11-13T01:51:10;15.00;99.90
76120;DHT22;64852;48.092;-1.640;2022-11-13T01:53:37;14.90;99.90
76120;DHT22;64852;48.092;-1.640;2022-11-13T01:56:04;15.00;99.90
76120;DHT22;64852;48.092;-1.640;2022-11-13T01:58:29;14.90;99.90
76120;DHT22;64852;48.092;-1.640;2022-11-13T02:00:55;14.90;99.90
76120;DHT22;64852;48.092;-1.640;2022-11-13T02:03:21;14.90;99.90
76120;DHT22;64852;48.092;-1.640;2022-11-13T02:05:46;14.90;99.90
76120;DHT22;64852;48.092;-1.640;2022-11-13T02:08:12;14.90;99.90
76120;DHT22;64852;48.092;-1.640;2022-11-13T02:10:38;14.90;99.90
76120;DHT22;64852;48.092;-1.640;2022-11-13T02:13:03;14.80;99.90
76120;DHT22;64852;48.092;-1.640;2022-11-13T02:15:31;14.80;99.90
76120;DHT22;64852;48.092;-1.640;2022-11-13T02:17:59;14.90;99.90
76120;DHT22;64852;48.092;-1.640;2022-11-13T02:20:38;14.90;99.90
76120;DHT22;64852;48.092;-1.640;2022-11-13T02:23:21;14.80;99.90
76120;DHT22;64852;48.092;-1.640;2022-11-13T02:25:51;14.80;99.90
76120;DHT22;64852;48.092;-1.640;2022-11-13T02:28:17;14.70;99.90
76120;DHT22;64852;48.092;-1.640;2022-11-13T02:30:43;14.70;99.90
76120;DHT22;64852;48.092;-1.640;2022-11-13T02:33:29;14.70;99.90
76120;DHT22;64852;48.092;-1.640;2022-11-13T02:35:55;14.70;99.90
76120;DHT22;64852;48.092;-1.640;2022-11-13T02:38:21;14.60;99.90
76120;DHT22;64852;48.092;-1.640;2022-11-13T02:40:46;14.60;99.90
76120;DHT22;64852;48.092;-1.640;2022-11-13T02:43:12;14.60;99.90
76120;DHT22;64852;48.092;-1.640;2022-11-13T02:45:38;14.60;99.90
76120;DHT22;64852;48.092;-1.640;2022-11-13T02:48:04;14.60;99.90
76120;DHT22;64852;48.092;-1.640;2022-11-13T02:50:31;14.60;99.90
76120;DHT22;64852;48.092;-1.640;2022-11-13T02:52:57;14.60;99.90
76120;DHT22;64852;48.092;-1.640;2022-11-13T02:55:23;14.60;99.90
76120;DHT22;64852;48.092;-1.640;2022-11-13T02:57:48;14.60;99.90
76120;DHT22;64852;48.092;-1.640;2022-11-13T03:00:14;14.60;99.90
76120;DHT22;64852;48.092;-1.640;2022-11-13T03:02:40;14.50;99.90
76120;DHT22;64852;48.092;-1.640;2022-11-13T03:05:06;14.50;99.90
76120;DHT22;64852;48.092;-1.640;2022-11-13T03:07:32;14.50;99.90
76120;DHT22;64852;48.092;-1.640;2022-11-13T03:09:58;14.40;99.90
76120;DHT22;64852;48.092;-1.640;2022-11-13T03:12:23;14.40;99.90
76120;DHT22;64852;48.092;-1.640;2022-11-13T03:14:49;14.40;99.90
76120;DHT22;64852;48.092;-1.640;2022-11-13T03:17:14;14.40;99.90
76120;DHT22;64852;48.092;-1.640;2022-11-13T03:19:40;14.40;99.90
76120;DHT22;64852;48.092;-1.640;2022-11-13T03:22:06;14.40;99.90
76120;DHT22;64852;48.092;-1.640;2022-11-13T03:24:31;14.40;99.90
76120;DHT22;64852;48.092;-1.640;2022-11-13T03:26:57;14.40;99.90
76120;DHT22;64852;48.092;-1.640;2022-11-13T03:29:22;14.30;99.90
76120;DHT22;64852;48.092;-1.640;2022-11-13T03:31:48;14.40;99.90
76120;DHT22;64852;48.092;-1.640;2022-11-13T03:34:13;14.40;99.90
76120;DHT22;64852;48.092;-1.640;2022-11-13T03:36:39;14.40;99.90
76120;DHT22;64852;48.092;-1.640;2022-11-13T03:39:05;14.30;99.90
76120;DHT22;64852;48.092;-1.640;2022-11-13T03:41:30;14.30;99.90
76120;DHT22;64852;48.092;-1.640;2022-11-13T03:43:56;14.40;99.90
76120;DHT22;64852;48.092;-1.640;2022-11-13T03:46:21;14.20;99.90
76120;DHT22;64852;48.092;-1.640;2022-11-13T03:48:47;14.30;99.90
76120;DHT22;64852;48.092;-1.640;2022-11-13T03:51:13;14.30;99.90
76120;DHT22;64852;48.092;-1.640;2022-11-13T03:53:39;14.20;99.90
76120;DHT22;64852;48.092;-1.640;2022-11-13T03:56:04;14.20;99.90
76120;DHT22;64852;48.092;-1.640;2022-11-13T03:58:30;14.20;99.90
76120;DHT22;64852;48.092;-1.640;2022-11-13T04:00:56;14.10;99.90
76120;DHT22;64852;48.092;-1.640;2022-11-13T04:03:22;14.20;99.90
76120;DHT22;64852;48.092;-1.640;2022-11-13T04:05:49;14.10;99.90
76120;DHT22;64852;48.092;-1.640;2022-11-13T04:08:16;14.10;99.90
76120;DHT22;64852;48.092;-1.640;2022-11-13T04:10:42;14.20;99.90
76120;DHT22;64852;48.092;-1.640;2022-11-13T04:13:08;14.10;99.90
76120;DHT22;64852;48.092;-1.640;2022-11-13T04:15:34;14.10;99.90
76120;DHT22;64852;48.092;-1.640;2022-11-13T04:17:59;14.00;99.90
76120;DHT22;64852;48.092;-1.640;2022-11-13T04:20:25;14.10;99.90
76120;DHT22;64852;48.092;-1.640;2022-11-13T04:22:53;14.00;99.90
76120;DHT22;64852;48.092;-1.640;2022-11-13T04:25:18;14.00;99.90
76120;DHT22;64852;48.092;-1.640;2022-11-13T04:27:44;13.90;99.90
76120;DHT22;64852;48.092;-1.640;2022-11-13T04:30:10;13.90;99.90
76120;DHT22;64852;48.092;-1.640;2022-11-13T04:32:36;13.80;99.90
76120;DHT22;64852;48.092;-1.640;2022-11-13T04:35:01;13.80;99.90
76120;DHT22;64852;48.092;-1.640;2022-11-13T04:37:27;13.70;99.90
76120;DHT22;64852;48.092;-1.640;2022-11-13T04:39:53;13.80;99.90
76120;DHT22;64852;48.092;-1.640;2022-11-13T04:42:18;13.80;99.90
76120;DHT22;64852;48.092;-1.640;2022-11-13T04:45:03;13.70;99.90
76120;DHT22;64852;48.092;-1.640;2022-11-13T04:47:28;13.70;99.90
76120;DHT22;64852;48.092;-1.640;2022-11-13T04:49:54;13.70;99.90
76120;DHT22;64852;48.092;-1.640;2022-11-13T04:52:20;13.70;99.90
76120;DHT22;64852;48.092;-1.640;2022-11-13T04:54:45;13.70;99.90
76120;DHT22;64852;48.092;-1.640;2022-11-13T04:57:11;13.70;99.90
76120;DHT22;64852;48.092;-1.640;2022-11-13T04:59:36;13.60;99.90
76120;DHT22;64852;48.092;-1.640;2022-11-13T05:02:02;13.60;99.90
76120;DHT22;64852;48.092;-1.640;2022-11-13T05:04:28;13.50;99.90
76120;DHT22;64852;48.092;-1.640;2022-11-13T05:06:54;13.70;99.90
76120;DHT22;64852;48.092;-1.640;2022-11-13T05:09:19;13.70;99.90
76120;DHT22;64852;48.092;-1.640;2022-11-13T05:11:45;13.70;99.90
76120;DHT22;64852;48.092;-1.640;2022-11-13T05:14:11;13.60;99.90
76120;DHT22;64852;48.092;-1.640;2022-11-13T05:16:38;13.50;99.90
76120;DHT22;64852;48.092;-1.640;2022-11-13T05:19:04;13.50;99.90
76120;DHT22;64852;48.092;-1.640;2022-11-13T05:21:32;13.50;99.90
76120;DHT22;64852;48.092;-1.640;2022-11-13T05:23:58;13.50;99.90
76120;DHT22;64852;48.092;-1.640;2022-11-13T05:26:24;13.50;99.90
76120;DHT22;64852;48.092;-1.640;2022-11-13T05:28:51;13.50;99.90
76120;DHT22;64852;48.092;-1.640;2022-11-13T05:31:17;13.50;99.90
76120;DHT22;64852;48.092;-1.640;2022-11-13T05:33:43;13.40;99.90
76120;DHT22;64852;48.092;-1.640;2022-11-13T05:36:13;13.40;99.90
76120;DHT22;64852;48.092;-1.640;2022-11-13T05:38:39;13.50;99.90
76120;DHT22;64852;48.092;-1.640;2022-11-13T05:41:18;13.50;99.90
76120;DHT22;64852;48.092;-1.640;2022-11-13T05:43:44;13.50;99.90
76120;DHT22;64852;48.092;-1.640;2022-11-13T05:46:11;13.50;99.90
76120;DHT22;64852;48.092;-1.640;2022-11-13T05:48:37;13.50;99.90
76120;DHT22;64852;48.092;-1.640;2022-11-13T05:53:34;13.50;99.90
76120;DHT22;64852;48.092;-1.640;2022-11-13T05:56:04;13.40;99.90
76120;DHT22;64852;48.092;-1.640;2022-11-13T05:58:31;13.30;99.90
76120;DHT22;64852;48.092;-1.640;2022-11-13T06:01:35;13.40;99.90
76120;DHT22;64852;48.092;-1.640;2022-11-13T06:04:00;13.40;99.90
76120;DHT22;64852;48.092;-1.640;2022-11-13T06:06:27;13.40;99.90
76120;DHT22;64852;48.092;-1.640;2022-11-13T06:08:54;13.40;99.90
76120;DHT22;64852;48.092;-1.640;2022-11-13T06:11:22;13.40;99.90
76120;DHT22;64852;48.092;-1.640;2022-11-13T06:13:49;13.40;99.90
76120;DHT22;64852;48.092;-1.640;2022-11-13T06:16:17;13.40;99.90
76120;DHT22;64852;48.092;-1.640;2022-11-13T06:18:44;13.40;99.90
76120;DHT22;64852;48.092;-1.640;2022-11-13T06:21:16;13.40;99.90
76120;DHT22;64852;48.092;-1.640;2022-11-13T06:23:43;13.30;99.90
76120;DHT22;64852;48.092;-1.640;2022-11-13T06:26:18;13.40;99.90
76120;DHT22;64852;48.092;-1.640;2022-11-13T06:28:43;13.40;99.90
76120;DHT22;64852;48.092;-1.640;2022-11-13T06:31:19;13.30;99.90
76120;DHT22;64852;48.092;-1.640;2022-11-13T06:33:44;13.30;99.90
76120;DHT22;64852;48.092;-1.640;2022-11-13T06:36:16;13.30;99.90
76120;DHT22;64852;48.092;-1.640;2022-11-13T06:38:42;13.40;99.90
76120;DHT22;64852;48.092;-1.640;2022-11-13T06:41:12;13.40;99.90
76120;DHT22;64852;48.092;-1.640;2022-11-13T06:43:38;13.50;99.90
76120;DHT22;64852;48.092;-1.640;2022-11-13T06:46:06;13.60;99.90
76120;DHT22;64852;48.092;-1.640;2022-11-13T06:48:33;13.60;99.90
76120;DHT22;64852;48.092;-1.640;2022-11-13T06:51:03;13.70;99.90
76120;DHT22;64852;48.092;-1.640;2022-11-13T06:53:29;13.60;99.90
76120;DHT22;64852;48.092;-1.640;2022-11-13T06:55:56;13.70;99.90
76120;DHT22;64852;48.092;-1.640;2022-11-13T06:58:22;13.70;99.90
76120;DHT22;64852;48.092;-1.640;2022-11-13T07:00:47;13.80;99.90
76120;DHT22;64852;48.092;-1.640;2022-11-13T07:05:43;13.80;99.90
76120;DHT22;64852;48.092;-1.640;2022-11-13T07:08:09;13.90;99.90
76120;DHT22;64852;48.092;-1.640;2022-11-13T07:10:34;13.90;99.90
76120;DHT22;64852;48.092;-1.640;2022-11-13T07:13:00;13.80;99.90
76120;DHT22;64852;48.092;-1.640;2022-11-13T07:15:26;13.80;99.90
76120;DHT22;64852;48.092;-1.640;2022-11-13T07:17:52;14.00;99.90
76120;DHT22;64852;48.092;-1.640;2022-11-13T07:20:18;13.80;99.90
76120;DHT22;64852;48.092;-1.640;2022-11-13T07:22:43;14.00;99.90
76120;DHT22;64852;48.092;-1.640;2022-11-13T07:25:09;13.90;99.90
76120;DHT22;64852;48.092;-1.640;2022-11-13T07:27:34;13.90;99.90
76120;DHT22;64852;48.092;-1.640;2022-11-13T07:30:00;14.00;99.90
76120;DHT22;64852;48.092;-1.640;2022-11-13T07:32:26;14.00;99.90
76120;DHT22;64852;48.092;-1.640;2022-11-13T07:34:51;14.10;99.90
76120;DHT22;64852;48.092;-1.640;2022-11-13T07:37:17;14.10;99.90
76120;DHT22;64852;48.092;-1.640;2022-11-13T07:39:43;14.10;99.90
76120;DHT22;64852;48.092;-1.640;2022-11-13T07:42:08;14.10;99.90
76120;DHT22;64852;48.092;-1.640;2022-11-13T07:44:34;14.00;99.90
76120;DHT22;64852;48.092;-1.640;2022-11-13T07:47:00;14.10;99.90
76120;DHT22;64852;48.092;-1.640;2022-11-13T07:49:25;14.10;99.90
76120;DHT22;64852;48.092;-1.640;2022-11-13T07:51:51;14.10;99.90
76120;DHT22;64852;48.092;-1.640;2022-11-13T07:54:16;14.10;99.90
76120;DHT22;64852;48.092;-1.640;2022-11-13T07:56:43;14.00;99.90
76120;DHT22;64852;48.092;-1.640;2022-11-13T07:59:11;14.00;99.90
76120;DHT22;64852;48.092;-1.640;2022-11-13T08:01:37;14.20;99.90
76120;DHT22;64852;48.092;-1.640;2022-11-13T08:04:03;14.10;99.90
76120;DHT22;64852;48.092;-1.640;2022-11-13T08:06:28;14.10;99.90
76120;DHT22;64852;48.092;-1.640;2022-11-13T08:08:54;14.10;99.90
76120;DHT22;64852;48.092;-1.640;2022-11-13T08:11:20;14.10;99.90
76120;DHT22;64852;48.092;-1.640;2022-11-13T08:13:45;14.20;99.90
76120;DHT22;64852;48.092;-1.640;2022-11-13T08:16:11;14.10;99.90
76120;DHT22;64852;48.092;-1.640;2022-11-13T08:18:37;14.10;99.90
76120;DHT22;64852;48.092;-1.640;2022-11-13T08:21:04;14.20;99.90
76120;DHT22;64852;48.092;-1.640;2022-11-13T08:23:30;14.10;99.90
76120;DHT22;64852;48.092;-1.640;2022-11-13T08:25:56;14.20;99.90
76120;DHT22;64852;48.092;-1.640;2022-11-13T08:28:22;14.30;99.90
76120;DHT22;64852;48.092;-1.640;2022-11-13T08:30:47;14.30;99.90
76120;DHT22;64852;48.092;-1.640;2022-11-13T08:33:13;14.40;99.90
76120;DHT22;64852;48.092;-1.640;2022-11-13T08:35:39;14.40;99.90
76120;DHT22;64852;48.092;-1.640;2022-11-13T08:38:07;14.40;99.90
76120;DHT22;64852;48.092;-1.640;2022-11-13T08:40:34;14.40;99.90
76120;DHT22;64852;48.092;-1.640;2022-11-13T08:43:01;14.50;99.90
76120;DHT22;64852;48.092;-1.640;2022-11-13T08:45:28;14.50;99.90
76120;DHT22;64852;48.092;-1.640;2022-11-13T08:47:57;14.60;99.90
76120;DHT22;64852;48.092;-1.640;2022-11-13T08:50:23;14.60;99.90
76120;DHT22;64852;48.092;-1.640;2022-11-13T08:52:56;14.60;99.90
76120;DHT22;64852;48.092;-1.640;2022-11-13T08:55:22;14.60;99.90
76120;DHT22;64852;48.092;-1.640;2022-11-13T08:57:48;14.60;99.90
76120;DHT22;64852;48.092;-1.640;2022-11-13T09:00:14;14.60;99.90
76120;DHT22;64852;48.092;-1.640;2022-11-13T09:02:40;14.60;99.90
76120;DHT22;64852;48.092;-1.640;2022-11-13T09:05:06;14.60;99.90
76120;DHT22;64852;48.092;-1.640;2022-11-13T09:07:32;14.70;99.90
76120;DHT22;64852;48.092;-1.640;2022-11-13T09:09:58;14.70;99.90
76120;DHT22;64852;48.092;-1.640;2022-11-13T09:12:23;14.70;99.90
76120;DHT22;64852;48.092;-1.640;2022-11-13T09:14:49;14.70;99.90
76120;DHT22;64852;48.092;-1.640;2022-11-13T09:17:15;14.70;99.90
76120;DHT22;64852;48.092;-1.640;2022-11-13T09:19:40;14.80;99.90
76120;DHT22;64852;48.092;-1.640;2022-11-13T09:22:06;14.80;99.90
76120;DHT22;64852;48.092;-1.640;2022-11-13T09:24:32;14.90;99.90
76120;DHT22;64852;48.092;-1.640;2022-11-13T09:26:57;14.90;99.90
76120;DHT22;64852;48.092;-1.640;2022-11-13T09:29:23;15.00;99.90
76120;DHT22;64852;48.092;-1.640;2022-11-13T09:31:50;15.00;99.90
76120;DHT22;64852;48.092;-1.640;2022-11-13T09:34:16;15.20;99.90
76120;DHT22;64852;48.092;-1.640;2022-11-13T09:36:41;15.30;99.90
76120;DHT22;64852;48.092;-1.640;2022-11-13T09:39:07;15.40;99.90
76120;DHT22;64852;48.092;-1.640;2022-11-13T09:41:37;15.40;99.90
76120;DHT22;64852;48.092;-1.640;2022-11-13T09:44:24;15.50;99.90
76120;DHT22;64852;48.092;-1.640;2022-11-13T09:49:51;15.50;99.90
76120;DHT22;64852;48.092;-1.640;2022-11-13T09:52:26;15.60;99.90
76120;DHT22;64852;48.092;-1.640;2022-11-13T09:54:53;15.70;99.90
76120;DHT22;64852;48.092;-1.640;2022-11-13T09:57:46;15.70;99.90
76120;DHT22;64852;48.092;-1.640;2022-11-13T10:00:16;15.80;99.90
76120;DHT22;64852;48.092;-1.640;2022-11-13T10:03:16;15.90;99.90
76120;DHT22;64852;48.092;-1.640;2022-11-13T10:09:25;16.00;99.90
76120;DHT22;64852;48.092;-1.640;2022-11-13T10:11:56;16.00;99.90
76120;DHT22;64852;48.092;-1.640;2022-11-13T10:14:39;16.10;99.90
76120;DHT22;64852;48.092;-1.640;2022-11-13T10:20:02;16.10;99.90
76120;DHT22;64852;48.092;-1.640;2022-11-13T10:25:16;16.10;99.90
76120;DHT22;64852;48.092;-1.640;2022-11-13T10:28:00;16.10;99.90
76120;DHT22;64852;48.092;-1.640;2022-11-13T10:30:27;16.30;99.90
76120;DHT22;64852;48.092;-1.640;2022-11-13T10:33:00;16.30;99.90
76120;DHT22;64852;48.092;-1.640;2022-11-13T10:35:40;16.40;99.90
76120;DHT22;64852;48.092;-1.640;2022-11-13T10:41:07;16.80;99.90
76120;DHT22;64852;48.092;-1.640;2022-11-13T10:43:35;16.80;99.90
76120;DHT22;64852;48.092;-1.640;2022-11-13T10:46:04;16.90;99.90
76120;DHT22;64852;48.092;-1.640;2022-11-13T10:48:32;17.10;99.90
76120;DHT22;64852;48.092;-1.640;2022-11-13T10:51:26;17.10;99.90
76120;DHT22;64852;48.092;-1.640;2022-11-13T10:53:52;17.20;99.90
76120;DHT22;64852;48.092;-1.640;2022-11-13T11:01:38;17.50;99.90
76120;DHT22;64852;48.092;-1.640;2022-11-13T11:04:06;17.60;99.90
76120;DHT22;64852;48.092;-1.640;2022-11-13T11:06:37;17.70;99.90
76120;DHT22;64852;48.092;-1.640;2022-11-13T11:09:25;17.90;99.90
76120;DHT22;64852;48.092;-1.640;2022-11-13T11:17:07;18.20;99.90
76120;DHT22;64852;48.092;-1.640;2022-11-13T11:19:36;18.30;99.90
76120;DHT22;64852;48.092;-1.640;2022-11-13T11:22:14;18.40;99.90
76120;DHT22;64852;48.092;-1.640;2022-11-13T11:25:00;18.50;99.90
76120;DHT22;64852;48.092;-1.640;2022-11-13T11:27:43;18.50;99.90
76120;DHT22;64852;48.092;-1.640;2022-11-13T11:30:22;18.70;99.90
76120;DHT22;64852;48.092;-1.640;2022-11-13T11:33:19;18.70;99.90
76120;DHT22;64852;48.092;-1.640;2022-11-13T11:35:53;18.30;99.90
76120;DHT22;64852;48.092;-1.640;2022-11-13T11:38:29;19.00;99.90
76120;DHT22;64852;48.092;-1.640;2022-11-13T11:41:12;19.20;99.90
76120;DHT22;64852;48.092;-1.640;2022-11-13T11:43:47;19.30;99.90
76120;DHT22;64852;48.092;-1.640;2022-11-13T11:46:18;19.50;99.90
76120;DHT22;64852;48.092;-1.640;2022-11-13T11:48:46;19.70;99.90
76120;DHT22;64852;48.092;-1.640;2022-11-13T11:54:27;20.00;99.90
76120;DHT22;64852;48.092;-1.640;2022-11-13T11:56:58;20.10;99.90
76120;DHT22;64852;48.092;-1.640;2022-11-13T12:06:04;20.80;99.90
76120;DHT22;64852;48.092;-1.640;2022-11-13T12:26:34;22.70;99.90
76120;DHT22;64852;48.092;-1.640;2022-11-13T12:32:13;23.10;99.90
76120;DHT22;64852;48.092;-1.640;2022-11-13T12:34:44;23.20;99.90
76120;DHT22;64852;48.092;-1.640;2022-11-13T12:37:27;23.30;99.90
76120;DHT22;64852;48.092;-1.640;2022-11-13T12:40:01;23.50;99.90
76120;DHT22;64852;48.092;-1.640;2022-11-13T12:42:47;23.60;99.90
76120;DHT22;64852;48.092;-1.640;2022-11-13T12:48:26;23.70;99.90
76120;DHT22;64852;48.092;-1.640;2022-11-13T12:51:05;23.80;99.90
76120;DHT22;64852;48.092;-1.640;2022-11-13T12:53:51;24.00;99.90
76120;DHT22;64852;48.092;-1.640;2022-11-13T13:01:32;24.10;99.90
76120;DHT22;64852;48.092;-1.640;2022-11-13T13:20:38;22.60;99.90
76120;DHT22;64852;48.092;-1.640;2022-11-13T13:23:05;22.40;99.90
76120;DHT22;64852;48.092;-1.640;2022-11-13T13:25:35;22.20;99.90
76120;DHT22;64852;48.092;-1.640;2022-11-13T13:30:50;21.90;99.90
76120;DHT22;64852;48.092;-1.640;2022-11-13T13:36:41;21.70;99.90
76120;DHT22;64852;48.092;-1.640;2022-11-13T13:39:20;21.60;99.90
76120;DHT22;64852;48.092;-1.640;2022-11-13T13:47:36;21.50;99.90
76120;DHT22;64852;48.092;-1.640;2022-11-13T13:50:09;21.40;99.90
76120;DHT22;64852;48.092;-1.640;2022-11-13T13:52:38;21.40;99.90
76120;DHT22;64852;48.092;-1.640;2022-11-13T13:55:05;21.40;99.90
76120;DHT22;64852;48.092;-1.640;2022-11-13T13:57:32;21.40;99.90
76120;DHT22;64852;48.092;-1.640;2022-11-13T13:59:59;21.30;99.90
76120;DHT22;64852;48.092;-1.640;2022-11-13T14:02:25;21.30;99.90
76120;DHT22;64852;48.092;-1.640;2022-11-13T14:04:53;21.20;99.90
76120;DHT22;64852;48.092;-1.640;2022-11-13T14:10:07;21.40;99.90
76120;DHT22;64852;48.092;-1.640;2022-11-13T14:12:43;21.50;99.90
76120;DHT22;64852;48.092;-1.640;2022-11-13T14:17:41;21.70;99.90
76120;DHT22;64852;48.092;-1.640;2022-11-13T14:20:10;21.70;99.90
76120;DHT22;64852;48.092;-1.640;2022-11-13T14:22:36;21.70;99.90
76120;DHT22;64852;48.092;-1.640;2022-11-13T14:25:03;21.90;99.90
76120;DHT22;64852;48.092;-1.640;2022-11-13T14:27:28;22.00;99.90
76120;DHT22;64852;48.092;-1.640;2022-11-13T14:29:56;21.90;99.90
76120;DHT22;64852;48.092;-1.640;2022-11-13T14:32:26;21.70;99.90
76120;DHT22;64852;48.092;-1.640;2022-11-13T14:34:54;21.60;99.90
76120;DHT22;64852;48.092;-1.640;2022-11-13T14:37:43;21.40;99.90
76120;DHT22;64852;48.092;-1.640;2022-11-13T14:40:29;21.20;99.90
76120;DHT22;64852;48.092;-1.640;2022-11-13T14:42:58;21.00;99.90
76120;DHT22;64852;48.092;-1.640;2022-11-13T14:45:26;20.90;99.90
76120;DHT22;64852;48.092;-1.640;2022-11-13T14:48:15;20.70;99.90
76120;DHT22;64852;48.092;-1.640;2022-11-13T14:50:57;20.70;99.90
76120;DHT22;64852;48.092;-1.640;2022-11-13T14:53:30;20.50;99.90
76120;DHT22;64852;48.092;-1.640;2022-11-13T14:56:10;20.40;99.90
76120;DHT22;64852;48.092;-1.640;2022-11-13T15:01:19;20.30;99.90
76120;DHT22;64852;48.092;-1.640;2022-11-13T15:03:47;20.10;99.90
76120;DHT22;64852;48.092;-1.640;2022-11-13T15:06:20;20.10;99.90
76120;DHT22;64852;48.092;-1.640;2022-11-13T15:08:47;20.00;99.90
76120;DHT22;64852;48.092;-1.640;2022-11-13T15:11:14;20.00;99.90
76120;DHT22;64852;48.092;-1.640;2022-11-13T15:13:41;19.90;99.90
76120;DHT22;64852;48.092;-1.640;2022-11-13T15:16:22;19.80;99.90
76120;DHT22;64852;48.092;-1.640;2022-11-13T15:19:02;19.80;99.90
76120;DHT22;64852;48.092;-1.640;2022-11-13T15:21:28;19.80;99.90
76120;DHT22;64852;48.092;-1.640;2022-11-13T15:23:54;19.70;99.90
76120;DHT22;64852;48.092;-1.640;2022-11-13T15:26:20;19.70;99.90
76120;DHT22;64852;48.092;-1.640;2022-11-13T15:28:46;19.70;99.90
76120;DHT22;64852;48.092;-1.640;2022-11-13T15:33:54;19.60;99.90
76120;DHT22;64852;48.092;-1.640;2022-11-13T15:36:20;19.50;99.90
76120;DHT22;64852;48.092;-1.640;2022-11-13T15:38:46;19.40;99.90
76120;DHT22;64852;48.092;-1.640;2022-11-13T15:41:15;19.40;99.90
76120;DHT22;64852;48.092;-1.640;2022-11-13T15:43:44;19.40;99.90
76120;DHT22;64852;48.092;-1.640;2022-11-13T15:46:12;19.30;99.90
76120;DHT22;64852;48.092;-1.640;2022-11-13T15:48:42;19.30;99.90
76120;DHT22;64852;48.092;-1.640;2022-11-13T15:54:14;19.20;99.90
76120;DHT22;64852;48.092;-1.640;2022-11-13T15:56:41;19.10;99.90
76120;DHT22;64852;48.092;-1.640;2022-11-13T15:59:10;19.00;99.90
76120;DHT22;64852;48.092;-1.640;2022-11-13T16:01:37;19.00;99.90
76120;DHT22;64852;48.092;-1.640;2022-11-13T16:04:03;18.90;99.90
76120;DHT22;64852;48.092;-1.640;2022-11-13T16:06:30;18.80;99.90
76120;DHT22;64852;48.092;-1.640;2022-11-13T16:09:02;18.80;99.90
76120;DHT22;64852;48.092;-1.640;2022-11-13T16:11:32;18.80;99.90
76120;DHT22;64852;48.092;-1.640;2022-11-13T16:13:59;18.70;99.90
76120;DHT22;64852;48.092;-1.640;2022-11-13T16:16:36;18.60;99.90
76120;DHT22;64852;48.092;-1.640;2022-11-13T16:19:07;18.30;99.90
76120;DHT22;64852;48.092;-1.640;2022-11-13T16:21:34;18.50;99.90
76120;DHT22;64852;48.092;-1.640;2022-11-13T16:23:59;18.50;99.90
76120;DHT22;64852;48.092;-1.640;2022-11-13T16:26:25;18.50;99.90
76120;DHT22;64852;48.092;-1.640;2022-11-13T16:28:53;18.40;99.90
76120;DHT22;64852;48.092;-1.640;2022-11-13T16:31:19;18.40;99.90
76120;DHT22;64852;48.092;-1.640;2022-11-13T16:33:45;18.30;99.90
76120;DHT22;64852;48.092;-1.640;2022-11-13T16:36:14;18.20;99.90
76120;DHT22;64852;48.092;-1.640;2022-11-13T16:38:41;18.20;99.90
76120;DHT22;64852;48.092;-1.640;2022-11-13T16:41:09;18.10;99.90
76120;DHT22;64852;48.092;-1.640;2022-11-13T16:43:35;18.10;99.90
76120;DHT22;64852;48.092;-1.640;2022-11-13T16:46:00;18.00;99.90
76120;DHT22;64852;48.092;-1.640;2022-11-13T16:48:27;18.00;99.90
76120;DHT22;64852;48.092;-1.640;2022-11-13T16:50:52;17.90;99.90
76120;DHT22;64852;48.092;-1.640;2022-11-13T16:53:18;17.90;99.90
76120;DHT22;64852;48.092;-1.640;2022-11-13T16:55:43;17.90;99.90
76120;DHT22;64852;48.092;-1.640;2022-11-13T16:58:12;17.80;99.90
76120;DHT22;64852;48.092;-1.640;2022-11-13T17:00:38;17.70;99.90
76120;DHT22;64852;48.092;-1.640;2022-11-13T17:03:03;17.70;99.90
76120;DHT22;64852;48.092;-1.640;2022-11-13T17:05:29;17.60;99.90
76120;DHT22;64852;48.092;-1.640;2022-11-13T17:07:58;17.60;99.90
76120;DHT22;64852;48.092;-1.640;2022-11-13T17:10:26;17.50;99.90
76120;DHT22;64852;48.092;-1.640;2022-11-13T17:12:52;17.50;99.90
76120;DHT22;64852;48.092;-1.640;2022-11-13T17:15:19;17.40;99.90
76120;DHT22;64852;48.092;-1.640;2022-11-13T17:17:45;17.40;99.90
76120;DHT22;64852;48.092;-1.640;2022-11-13T17:20:11;17.30;99.90